Time;durP1;ratioP1;P1;durP2;ratioP2;P2;SDS_P1;SDS_P2;PMS_P1;PMS_P2;Temp;Humidity;BMP_temperature;BMP_pressure;BME280_temperature;BME280_humidity;BME280_pressure;Samples;Min_cycle;Max_cycle;Signal;HPM_P1;HPM_P2
2022/04/09 00:01:17;;;;;;;1999.90;999.90;;;5.70;99.90;;;;;;5082659;28;20990;-68
2022/04/09 00:03:44;;;;;;;1999.90;999.90;;;5.80;99.90;;;;;;5081529;28;20904;-68
2022/04/09 00:06:11;;;;;;;1999.90;999.90;;;5.80;99.90;;;;;;5082850;28;20523;-68
2022/04/09 00:08:37;;;;;;;1999.90;999.90;;;5.80;99.90;;;;;;5080290;28;20470;-67
2022/04/09 00:11:05;;;;;;;1999.90;999.90;;;5.80;99.90;;;;;;5089513;28;20522;-68
2022/04/09 00:13:32;;;;;;;1999.90;999.90;;;5.80;99.90;;;;;;5087381;28;20460;-68
2022/04/09 00:15:59;;;;;;;1999.90;999.90;;;5.80;99.90;;;;;;5079655;28;20457;-67
2022/04/09 00:18:25;;;;;;;1999.90;999.90;;;5.70;99.90;;;;;;5074251;28;20495;-69
2022/04/09 00:20:52;;;;;;;1999.90;999.90;;;5.70;99.90;;;;;;5080924;28;20546;-68
2022/04/09 00:23:19;;;;;;;1999.90;999.90;;;5.60;99.90;;;;;;5098259;22;20492;-70
2022/04/09 00:25:46;;;;;;;1999.90;999.90;;;5.60;99.90;;;;;;5089417;28;20543;-69
2022/04/09 00:28:14;;;;;;;1999.90;999.90;;;5.70;99.90;;;;;;5083455;28;20506;-69
2022/04/09 00:30:41;;;;;;;1999.90;999.90;;;5.70;99.90;;;;;;5080946;28;20461;-68
2022/04/09 00:33:08;;;;;;;1999.90;999.90;;;5.70;99.90;;;;;;5081714;28;20533;-68
2022/04/09 00:35:34;;;;;;;1999.90;999.90;;;5.70;99.90;;;;;;5083906;28;20531;-69
2022/04/09 00:38:01;;;;;;;1999.90;999.90;;;5.70;99.90;;;;;;5077752;28;20483;-71
2022/04/09 00:40:28;;;;;;;1999.90;999.90;;;5.70;99.90;;;;;;5081819;28;20506;-69
2022/04/09 00:42:54;;;;;;;1999.90;999.90;;;5.70;99.90;;;;;;5077069;28;20488;-71
2022/04/09 00:45:22;;;;;;;1999.90;999.90;;;5.70;99.90;;;;;;5079493;28;20460;-71
2022/04/09 00:47:49;;;;;;;1999.90;999.90;;;5.70;99.90;;;;;;5080590;28;20465;-71
2022/04/09 00:50:16;;;;;;;1999.90;999.90;;;5.70;99.90;;;;;;5083405;28;20437;-71
2022/04/09 00:52:47;;;;;;;1999.90;999.90;;;5.80;99.90;;;;;;5088393;28;20480;-70
2022/04/09 00:55:15;;;;;;;1999.90;999.90;;;5.80;99.90;;;;;;5078426;28;20464;-69
2022/04/09 00:57:45;;;;;;;1999.90;999.90;;;5.70;99.90;;;;;;5086375;28;20460;-70
2022/04/09 01:00:13;;;;;;;1999.90;999.90;;;5.60;99.90;;;;;;5078434;28;20461;-69
2022/04/09 01:02:43;;;;;;;1999.90;999.90;;;5.60;99.90;;;;;;5082889;28;20488;-70
2022/04/09 01:05:11;;;;;;;1999.90;999.90;;;5.70;99.90;;;;;;5083863;28;20498;-69
2022/04/09 01:07:37;;;;;;;1999.90;999.90;;;5.60;99.90;;;;;;5080627;28;20464;-70
2022/04/09 01:10:08;;;;;;;1999.90;999.90;;;5.60;99.90;;;;;;5085383;28;20535;-66
2022/04/09 01:12:36;;;;;;;1999.90;999.90;;;5.60;99.90;;;;;;5086277;28;21158;-68
2022/04/09 01:15:05;;;;;;;1999.90;999.90;;;5.60;99.90;;;;;;5080777;28;20552;-72
2022/04/09 01:17:32;;;;;;;1999.90;999.90;;;5.60;99.90;;;;;;5081943;28;20466;-69
2022/04/09 01:20:00;;;;;;;1999.90;999.90;;;5.60;99.90;;;;;;5083095;28;20457;-70
2022/04/09 01:22:28;;;;;;;1999.90;999.90;;;5.60;99.90;;;;;;5087601;28;20491;-71
2022/04/09 01:24:54;;;;;;;1999.90;999.90;;;5.60;99.90;;;;;;5080086;28;20902;-70
2022/04/09 01:27:21;;;;;;;1999.90;999.90;;;5.60;99.90;;;;;;5078241;28;20876;-71
2022/04/09 01:29:48;;;;;;;1999.90;999.90;;;5.70;99.90;;;;;;5081704;28;20437;-71
2022/04/09 01:32:16;;;;;;;1999.90;999.90;;;5.70;99.90;;;;;;5085052;28;20514;-72
2022/04/09 01:34:43;;;;;;;1999.90;999.90;;;5.70;99.90;;;;;;5080892;28;20461;-69
2022/04/09 01:37:10;;;;;;;1999.90;999.90;;;5.70;99.90;;;;;;5078266;28;20530;-72
2022/04/09 01:39:38;;;;;;;1999.90;999.90;;;5.70;99.90;;;;;;5078962;28;20465;-71
2022/04/09 01:42:10;;;;;;;1999.90;999.90;;;5.60;99.90;;;;;;5087337;28;20529;-71
2022/04/09 01:44:36;;;;;;;1999.90;999.90;;;5.70;99.90;;;;;;5081694;28;21038;-71
2022/04/09 01:47:04;;;;;;;1999.90;999.90;;;5.60;99.90;;;;;;5080069;28;20533;-72
2022/04/09 01:49:31;;;;;;;1999.90;999.90;;;5.60;99.90;;;;;;5083790;28;20463;-69
2022/04/09 01:51:57;;;;;;;1999.90;999.90;;;5.60;99.90;;;;;;5086173;28;20456;-72
2022/04/09 01:54:24;;;;;;;1999.90;999.90;;;5.50;99.90;;;;;;5081652;28;20445;-72
2022/04/09 01:56:52;;;;;;;1999.90;999.90;;;5.50;99.90;;;;;;5076071;28;20461;-71
2022/04/09 01:59:19;;;;;;;1999.90;999.90;;;5.50;99.90;;;;;;5085172;28;20456;-71
2022/04/09 02:01:47;;;;;;;1999.90;999.90;;;5.50;99.90;;;;;;5079770;28;20487;-74
2022/04/09 02:04:15;;;;;;;1999.90;999.90;;;5.50;99.90;;;;;;5086244;28;20472;-72
2022/04/09 02:06:42;;;;;;;1999.90;999.90;;;5.50;99.90;;;;;;5080178;28;20518;-70
2022/04/09 02:09:11;;;;;;;1999.90;999.90;;;5.50;99.90;;;;;;5085680;28;20475;-71
2022/04/09 02:11:39;;;;;;;1999.90;999.90;;;5.50;99.90;;;;;;5082228;28;20451;-68
2022/04/09 02:14:09;;;;;;;1999.90;999.90;;;5.50;99.90;;;;;;5086458;28;20551;-72
2022/04/09 02:16:36;;;;;;;1999.90;999.90;;;5.40;99.90;;;;;;5083227;28;20441;-71
2022/04/09 02:19:03;;;;;;;1999.90;999.90;;;5.40;99.90;;;;;;5082958;28;20480;-67
2022/04/09 02:21:29;;;;;;;1999.90;999.90;;;5.50;99.90;;;;;;5086073;28;21205;-70
2022/04/09 02:23:56;;;;;;;1999.90;999.90;;;5.50;99.90;;;;;;5082538;28;20468;-71
2022/04/09 02:26:23;;;;;;;1999.90;999.90;;;5.50;99.90;;;;;;5084984;28;20506;-65
2022/04/09 02:28:50;;;;;;;1999.90;999.90;;;5.50;99.90;;;;;;5081137;28;20461;-71
2022/04/09 02:31:18;;;;;;;1999.90;999.90;;;5.50;99.90;;;;;;5081234;28;20444;-67
2022/04/09 02:33:45;;;;;;;1999.90;999.90;;;5.50;99.90;;;;;;5079990;28;20476;-72
2022/04/09 02:36:13;;;;;;;1999.90;999.90;;;5.50;99.90;;;;;;5080219;28;20484;-72
2022/04/09 02:38:39;;;;;;;1999.90;999.90;;;5.50;99.90;;;;;;5077052;28;20968;-67
2022/04/09 02:41:08;;;;;;;1999.90;999.90;;;5.50;99.90;;;;;;5078165;28;20484;-67
2022/04/09 02:43:35;;;;;;;1999.90;999.90;;;5.50;99.90;;;;;;5087348;28;20549;-72
2022/04/09 02:46:02;;;;;;;1999.90;999.90;;;5.50;99.90;;;;;;5076100;28;20511;-72
2022/04/09 02:48:30;;;;;;;1999.90;999.90;;;5.50;99.90;;;;;;5078296;28;21031;-69
2022/04/09 02:50:57;;;;;;;1999.90;999.90;;;5.40;99.90;;;;;;5084753;28;20497;-72
2022/04/09 02:53:24;;;;;;;1999.90;999.90;;;5.40;99.90;;;;;;5087466;28;20472;-70
2022/04/09 02:55:51;;;;;;;1999.90;999.90;;;5.40;99.90;;;;;;5077677;28;20463;-72
2022/04/09 02:58:17;;;;;;;1999.90;999.90;;;5.40;99.90;;;;;;5074562;28;20815;-72
2022/04/09 03:00:44;;;;;;;1999.90;999.90;;;5.30;99.90;;;;;;5076851;28;20461;-68
2022/04/09 03:03:11;;;;;;;1999.90;999.90;;;5.30;99.90;;;;;;5078571;28;20495;-67
2022/04/09 03:05:39;;;;;;;1999.90;999.90;;;5.30;99.90;;;;;;5079309;28;20492;-68
2022/04/09 03:08:06;;;;;;;1999.90;999.90;;;5.30;99.90;;;;;;5084832;28;21067;-68
2022/04/09 03:10:33;;;;;;;1999.90;999.90;;;5.30;99.90;;;;;;5079657;28;20495;-71
2022/04/09 03:13:00;;;;;;;1999.90;999.90;;;5.50;99.90;;;;;;5080051;28;20895;-72
2022/04/09 03:15:29;;;;;;;1999.90;999.90;;;5.40;99.90;;;;;;5090181;28;20523;-71
2022/04/09 03:17:55;;;;;;;1999.90;999.90;;;5.40;99.90;;;;;;5083417;28;20853;-68
2022/04/09 03:20:22;;;;;;;1999.90;999.90;;;5.30;99.90;;;;;;5076854;28;20507;-68
2022/04/09 03:22:51;;;;;;;1999.90;999.90;;;5.30;99.90;;;;;;5087752;28;20533;-71
2022/04/09 03:25:17;;;;;;;1999.90;999.90;;;5.30;99.90;;;;;;5082817;28;21046;-71
2022/04/09 03:27:44;;;;;;;1999.90;999.90;;;5.30;99.90;;;;;;5084909;28;20571;-69
2022/04/09 03:30:11;;;;;;;1999.90;999.90;;;5.30;99.90;;;;;;5083657;28;20433;-71
2022/04/09 03:32:39;;;;;;;1999.90;999.90;;;5.40;99.90;;;;;;5090556;28;20483;-70
2022/04/09 03:35:08;;;;;;;1999.90;999.90;;;5.40;99.90;;;;;;5076543;28;20460;-70
2022/04/09 03:37:35;;;;;;;1999.90;999.90;;;5.50;99.90;;;;;;5080731;28;20464;-70
2022/04/09 03:40:06;;;;;;;1999.90;999.90;;;5.40;99.90;;;;;;5080565;28;20674;-71
2022/04/09 03:42:33;;;;;;;1999.90;999.90;;;5.40;99.90;;;;;;5091226;28;20545;-71
2022/04/09 03:44:59;;;;;;;1999.90;999.90;;;5.30;99.90;;;;;;5081168;28;20445;-69
2022/04/09 03:47:26;;;;;;;1999.90;999.90;;;5.20;99.90;;;;;;5081717;28;20494;-70
2022/04/09 03:49:53;;;;;;;1999.90;999.90;;;5.20;99.90;;;;;;5086306;28;20465;-70
2022/04/09 03:52:19;;;;;;;1999.90;999.90;;;5.20;99.90;;;;;;5080837;28;20476;-68
2022/04/09 03:54:46;;;;;;;1999.90;999.90;;;5.10;99.90;;;;;;5083224;28;20448;-72
2022/04/09 03:57:14;;;;;;;1999.90;999.90;;;5.10;99.90;;;;;;5078883;28;20514;-71
2022/04/09 03:59:41;;;;;;;1999.90;999.90;;;5.20;99.90;;;;;;5083644;28;20456;-71
2022/04/09 04:02:08;;;;;;;1999.90;999.90;;;5.20;99.90;;;;;;5089986;28;20563;-69
2022/04/09 04:04:37;;;;;;;1999.90;999.90;;;5.20;99.90;;;;;;5082092;28;20468;-74
2022/04/09 04:07:04;;;;;;;1999.90;999.90;;;5.20;99.90;;;;;;5081687;28;20521;-70
2022/04/09 04:09:30;;;;;;;1999.90;999.90;;;5.20;99.90;;;;;;5083586;28;20473;-69
2022/04/09 04:11:57;;;;;;;1999.90;999.90;;;5.20;99.90;;;;;;5081098;28;20492;-68
2022/04/09 04:14:28;;;;;;;1999.90;999.90;;;5.10;99.90;;;;;;5084908;28;20464;-71
2022/04/09 04:16:55;;;;;;;1999.90;999.90;;;5.10;99.90;;;;;;5085373;28;20964;-68
2022/04/09 04:19:21;;;;;;;1999.90;999.90;;;5.20;99.90;;;;;;5080530;28;21166;-69
2022/04/09 04:21:48;;;;;;;1999.90;999.90;;;5.10;99.90;;;;;;5081188;28;20485;-71
2022/04/09 04:24:15;;;;;;;1999.90;999.90;;;5.10;99.90;;;;;;5082510;28;20472;-70
2022/04/09 04:26:41;;;;;;;1999.90;999.90;;;5.10;99.90;;;;;;5084195;28;20464;-71
2022/04/09 04:29:08;;;;;;;1999.90;999.90;;;5.10;99.90;;;;;;5081427;28;20464;-70
2022/04/09 04:31:36;;;;;;;1999.90;999.90;;;5.10;99.90;;;;;;5082618;28;20469;-73
2022/04/09 04:34:03;;;;;;;1999.90;999.90;;;5.10;99.90;;;;;;5084995;28;20467;-73
2022/04/09 04:36:29;;;;;;;1999.90;999.90;;;5.00;99.90;;;;;;5078706;28;20548;-72
2022/04/09 04:38:56;;;;;;;1999.90;999.90;;;5.10;99.90;;;;;;5083276;28;20456;-72
2022/04/09 04:41:23;;;;;;;1999.90;999.90;;;5.10;99.90;;;;;;5080306;28;20457;-69
2022/04/09 04:43:51;;;;;;;1999.90;999.90;;;5.10;99.90;;;;;;5083015;28;20515;-74
2022/04/09 04:46:18;;;;;;;1999.90;999.90;;;5.10;99.90;;;;;;5081664;28;20500;-70
2022/04/09 04:48:46;;;;;;;1999.90;999.90;;;5.10;99.90;;;;;;5080866;28;20493;-72
2022/04/09 04:51:13;;;;;;;1999.90;999.90;;;5.00;99.90;;;;;;5082362;28;20511;-71
2022/04/09 04:53:40;;;;;;;1999.90;999.90;;;5.00;99.90;;;;;;5080764;28;20985;-72
2022/04/09 04:56:07;;;;;;;1999.90;999.90;;;4.90;99.90;;;;;;5080648;28;20453;-69
2022/04/09 04:58:34;;;;;;;1999.90;999.90;;;4.90;99.90;;;;;;5081125;28;20523;-69
2022/04/09 05:01:02;;;;;;;1999.90;999.90;;;4.80;99.90;;;;;;5089367;28;20564;-72
2022/04/09 05:03:29;;;;;;;1999.90;999.90;;;4.70;99.90;;;;;;5088096;28;20484;-73
2022/04/09 05:05:57;;;;;;;1999.90;999.90;;;4.80;99.90;;;;;;5082493;28;20458;-70
2022/04/09 05:08:24;;;;;;;1999.90;999.90;;;4.70;99.90;;;;;;5077733;28;20472;-71
2022/04/09 05:10:51;;;;;;;1999.90;999.90;;;4.70;99.90;;;;;;5088641;28;20483;-68
2022/04/09 05:13:18;;;;;;;1999.90;999.90;;;4.60;99.90;;;;;;5084874;28;20507;-71
2022/04/09 05:15:45;;;;;;;1999.90;999.90;;;4.70;99.90;;;;;;5082509;28;20448;-66
2022/04/09 05:18:11;;;;;;;1999.90;999.90;;;4.70;99.90;;;;;;5079350;28;20453;-70
2022/04/09 05:20:38;;;;;;;1999.90;999.90;;;4.90;99.90;;;;;;5088970;28;20440;-70
2022/04/09 05:23:06;;;;;;;1999.90;999.90;;;5.00;99.90;;;;;;5084602;28;20485;-69
2022/04/09 05:25:33;;;;;;;1999.90;999.90;;;5.20;99.90;;;;;;5083773;28;20971;-69
2022/04/09 05:28:04;;;;;;;1999.90;999.90;;;5.40;99.90;;;;;;5080500;28;20460;-67
2022/04/09 05:30:30;;;;;;;1999.90;999.90;;;5.50;99.90;;;;;;5080022;28;20480;-69
2022/04/09 05:32:57;;;;;;;1999.90;999.90;;;5.60;99.90;;;;;;5079808;28;20544;-69
2022/04/09 05:35:24;;;;;;;1999.90;999.90;;;5.60;99.90;;;;;;5080189;28;20520;-71
2022/04/09 05:37:51;;;;;;;1999.90;999.90;;;5.50;99.90;;;;;;5082941;28;20464;-69
2022/04/09 05:40:20;;;;;;;1999.90;999.90;;;5.40;99.90;;;;;;5090262;28;20440;-69
2022/04/09 05:42:46;;;;;;;1999.90;999.90;;;5.40;99.90;;;;;;5082739;28;20522;-72
2022/04/09 05:45:13;;;;;;;1999.90;999.90;;;5.50;99.90;;;;;;5078131;28;20457;-71
2022/04/09 05:47:40;;;;;;;1999.90;999.90;;;5.50;99.90;;;;;;5081497;28;20465;-69
2022/04/09 05:50:08;;;;;;;1999.90;999.90;;;5.50;99.90;;;;;;5092733;28;20460;-68
2022/04/09 05:52:35;;;;;;;1999.90;999.90;;;5.40;99.90;;;;;;5089642;28;21029;-69
2022/04/09 05:55:03;;;;;;;1999.90;999.90;;;5.40;99.90;;;;;;5081917;28;20474;-69
2022/04/09 05:57:31;;;;;;;1999.90;999.90;;;5.50;99.90;;;;;;5081367;28;20972;-69
2022/04/09 05:59:58;;;;;;;1999.90;999.90;;;5.40;99.90;;;;;;5083807;28;20488;-69
2022/04/09 06:02:25;;;;;;;1999.90;999.90;;;5.50;99.90;;;;;;5076113;28;20485;-73
2022/04/09 06:04:52;;;;;;;1999.90;999.90;;;5.60;99.90;;;;;;5079846;28;20496;-70
2022/04/09 06:07:19;;;;;;;1999.90;999.90;;;5.50;99.90;;;;;;5077968;28;20512;-68
2022/04/09 06:09:47;;;;;;;1999.90;999.90;;;5.50;99.90;;;;;;5079064;28;20464;-73
2022/04/09 06:12:13;;;;;;;1999.90;999.90;;;5.40;99.90;;;;;;5083215;28;20480;-70
2022/04/09 06:14:42;;;;;;;1999.90;999.90;;;5.50;99.90;;;;;;5082451;28;20509;-71
2022/04/09 06:17:08;;;;;;;1999.90;999.90;;;5.60;99.90;;;;;;5077762;28;20467;-72
2022/04/09 06:19:35;;;;;;;1999.90;999.90;;;5.70;99.90;;;;;;5088939;28;20483;-73
2022/04/09 06:22:02;;;;;;;1999.90;999.90;;;5.80;99.90;;;;;;5079574;28;20494;-69
2022/04/09 06:24:28;;;;;;;1999.90;999.90;;;5.80;99.90;;;;;;5099593;22;20501;-65
2022/04/09 06:26:55;;;;;;;1999.90;999.90;;;5.90;99.90;;;;;;5073010;28;20985;-65
2022/04/09 06:29:22;;;;;;;1999.90;999.90;;;6.00;99.90;;;;;;5074527;28;20954;-65
2022/04/09 06:31:50;;;;;;;1999.90;999.90;;;6.10;99.90;;;;;;5071835;28;20510;-63
2022/04/09 06:34:18;;;;;;;1999.90;999.90;;;6.30;99.90;;;;;;5073548;28;20546;-63
2022/04/09 06:36:46;;;;;;;1999.90;999.90;;;6.40;99.90;;;;;;5069463;28;20553;-64
2022/04/09 06:39:13;;;;;;;1999.90;999.90;;;6.40;99.90;;;;;;5071158;28;20457;-65
2022/04/09 06:41:41;;;;;;;1999.90;999.90;;;6.00;99.90;;;;;;5071394;28;20881;-65
2022/04/09 06:44:08;;;;;;;1999.90;999.90;;;5.70;99.90;;;;;;5073307;28;20895;-68
2022/04/09 06:46:35;;;;;;;1999.90;999.90;;;5.60;99.90;;;;;;5073317;28;20461;-67
2022/04/09 06:49:03;;;;;;;1999.90;999.90;;;5.20;99.90;;;;;;5072543;28;20901;-67
2022/04/09 06:51:29;;;;;;;1999.90;999.90;;;5.10;99.90;;;;;;5072869;28;20510;-68
2022/04/09 06:53:56;;;;;;;1999.90;999.90;;;5.00;99.90;;;;;;5074675;28;21001;-67
2022/04/09 06:56:23;;;;;;;1999.90;999.90;;;5.00;99.90;;;;;;5074028;28;20464;-66
2022/04/09 06:58:49;;;;;;;1999.90;999.90;;;5.20;99.90;;;;;;5075193;28;20449;-68
2022/04/09 07:01:16;;;;;;;1999.90;999.90;;;5.60;99.90;;;;;;5075046;28;20506;-65
2022/04/09 07:03:43;;;;;;;1999.90;999.90;;;5.90;99.90;;;;;;5074893;28;20481;-65
2022/04/09 07:06:11;;;;;;;1999.90;999.90;;;6.00;99.90;;;;;;5072972;28;21017;-65
2022/04/09 07:08:39;;;;;;;1999.90;999.90;;;6.20;99.90;;;;;;5072929;28;20988;-63
2022/04/09 07:11:06;;;;;;;1999.90;999.90;;;6.50;99.90;;;;;;5074904;28;20531;-64
2022/04/09 07:13:32;;;;;;;1999.90;999.90;;;6.70;99.90;;;;;;5074882;28;20551;-65
2022/04/09 07:15:59;;;;;;;1999.90;999.90;;;6.90;99.90;;;;;;5075374;28;20449;-65
2022/04/09 07:18:26;;;;;;;1999.90;999.90;;;7.00;99.90;;;;;;5073373;28;20474;-65
2022/04/09 07:20:53;;;;;;;1999.90;999.90;;;7.30;99.90;;;;;;5080458;28;20522;-66
2022/04/09 07:23:21;;;;;;;1999.90;999.90;;;7.50;99.90;;;;;;5082811;28;20544;-64
2022/04/09 07:25:47;;;;;;;1999.90;999.90;;;7.60;99.90;;;;;;5083629;28;20783;-66
2022/04/09 07:28:14;;;;;;;1999.90;999.90;;;7.70;99.90;;;;;;5071870;28;20484;-65
2022/04/09 07:30:42;;;;;;;1999.90;999.90;;;7.70;99.90;;;;;;5059092;28;20480;-65
2022/04/09 07:33:09;;;;;;;1999.90;999.90;;;7.90;99.90;;;;;;5054101;28;20539;-65
2022/04/09 07:35:35;;;;;;;1999.90;999.90;;;8.00;99.90;;;;;;5056781;28;20537;-64
2022/04/09 07:38:04;;;;;;;1999.90;999.90;;;7.90;99.90;;;;;;5074472;28;20449;-65
2022/04/09 07:40:32;;;;;;;1999.90;999.90;;;7.80;99.90;;;;;;5074160;28;20464;-66
2022/04/09 07:43:00;;;;;;;1999.90;999.90;;;7.90;99.90;;;;;;5074610;28;20658;-65
2022/04/09 07:45:28;;;;;;;1999.90;999.90;;;8.00;99.90;;;;;;5074168;28;20477;-66
2022/04/09 07:47:56;;;;;;;1999.90;999.90;;;8.30;99.90;;;;;;5073664;28;20449;-64
2022/04/09 07:50:25;;;;;;;1999.90;999.90;;;8.50;99.90;;;;;;5074232;28;20449;-66
2022/04/09 07:52:53;;;;;;;1999.90;999.90;;;8.10;99.90;;;;;;5072648;28;20864;-65
2022/04/09 07:55:21;;;;;;;1999.90;999.90;;;7.60;99.90;;;;;;5073194;28;20978;-65
2022/04/09 07:57:50;;;;;;;1999.90;999.90;;;7.30;99.90;;;;;;5073763;28;20449;-66
2022/04/09 08:00:19;;;;;;;1999.90;999.90;;;7.10;99.90;;;;;;5073860;28;20529;-65
2022/04/09 08:02:45;;;;;;;1999.90;999.90;;;6.80;99.90;;;;;;5073342;28;20446;-65
2022/04/09 08:05:12;;;;;;;1999.90;999.90;;;6.70;99.90;;;;;;5073590;28;20481;-66
2022/04/09 08:07:39;;;;;;;1999.90;999.90;;;7.20;99.90;;;;;;5073302;28;20515;-65
2022/04/09 08:10:07;;;;;;;1999.90;999.90;;;7.60;99.90;;;;;;5073584;28;20454;-63
2022/04/09 08:12:33;;;;;;;1999.90;999.90;;;7.80;99.90;;;;;;5083604;28;20441;-66
2022/04/09 08:15:01;;;;;;;1999.90;999.90;;;8.00;99.90;;;;;;5070409;28;20519;-65
2022/04/09 08:17:28;;;;;;;1999.90;999.90;;;8.10;99.90;;;;;;5062250;28;20507;-65
2022/04/09 08:19:55;;;;;;;1999.90;999.90;;;8.10;99.90;;;;;;5072503;28;20449;-64
2022/04/09 08:22:23;;;;;;;1999.90;999.90;;;8.20;99.90;;;;;;5054379;28;20466;-65
2022/04/09 08:24:50;;;;;;;1999.90;999.90;;;8.40;99.90;;;;;;5072640;28;20573;-65
2022/04/09 08:27:17;;;;;;;1999.90;999.90;;;8.60;99.90;;;;;;5073131;28;20467;-65
2022/04/09 08:29:43;;;;;;;1999.90;999.90;;;8.70;99.90;;;;;;5068404;28;20457;-65
2022/04/09 08:32:12;;;;;;;1999.90;999.90;;;8.60;99.90;;;;;;5072420;28;20453;-63
2022/04/09 08:34:39;;;;;;;1999.90;999.90;;;8.60;99.90;;;;;;5070403;28;20551;-65
2022/04/09 08:37:07;;;;;;;1999.90;999.90;;;8.80;99.90;;;;;;5068744;28;20499;-65
2022/04/09 08:39:34;;;;;;;1999.90;999.90;;;8.60;99.90;;;;;;5070599;28;20457;-65
2022/04/09 08:42:02;;;;;;;1999.90;999.90;;;8.40;99.90;;;;;;5072619;28;20949;-65
2022/04/09 08:44:31;;;;;;;1999.90;999.90;;;8.70;99.90;;;;;;5072036;28;20469;-65
2022/04/09 08:46:58;;;;;;;1999.90;999.90;;;8.80;99.90;;;;;;5070838;28;20437;-65
2022/04/09 08:49:28;;;;;;;1999.90;999.90;;;9.00;99.90;;;;;;5070827;28;20498;-66
2022/04/09 08:51:55;;;;;;;1999.90;999.90;;;9.10;99.90;;;;;;5070245;28;20475;-65
2022/04/09 08:54:21;;;;;;;1999.90;999.90;;;9.00;99.90;;;;;;5069940;28;20976;-67
2022/04/09 08:56:49;;;;;;;1999.90;999.90;;;8.70;99.90;;;;;;5051350;28;20442;-65
2022/04/09 08:59:16;;;;;;;1999.90;999.90;;;8.60;99.90;;;;;;5051203;28;20453;-65
2022/04/09 09:01:43;;;;;;;1999.90;999.90;;;8.30;99.90;;;;;;5070595;28;20479;-64
2022/04/09 09:04:10;;;;;;;1999.90;999.90;;;8.20;99.90;;;;;;5070804;28;20478;-65
2022/04/09 09:06:40;;;;;;;1999.90;999.90;;;8.40;99.90;;;;;;5072887;28;20437;-66
2022/04/09 09:09:08;;;;;;;1999.90;999.90;;;8.70;99.90;;;;;;5072707;28;20457;-65
2022/04/09 09:11:47;;;;;;;1999.90;999.90;;;8.60;99.90;;;;;;5072352;28;20450;-64
2022/04/09 09:14:26;;;;;;;1999.90;999.90;;;8.40;99.90;;;;;;5071923;28;20464;-65
2022/04/09 09:16:54;;;;;;;1999.90;999.90;;;8.20;99.90;;;;;;5072385;28;20781;-65
2022/04/09 09:19:22;;;;;;;1999.90;999.90;;;8.40;99.90;;;;;;5072362;28;20460;-65
2022/04/09 09:21:56;;;;;;;1999.90;999.90;;;8.60;99.90;;;;;;5070632;28;20441;-63
2022/04/09 09:24:22;;;;;;;1999.90;999.90;;;9.00;99.90;;;;;;5075459;28;20540;-66
2022/04/09 09:26:59;;;;;;;1999.90;999.90;;;8.70;99.90;;;;;;5092048;28;20437;-65
2022/04/09 09:29:27;;;;;;;1999.90;999.90;;;8.50;99.90;;;;;;5091522;28;20445;-66
2022/04/09 09:31:55;;;;;;;1999.90;999.90;;;8.40;99.90;;;;;;5090463;28;20496;-67
2022/04/09 09:34:22;;;;;;;1999.90;999.90;;;8.50;99.90;;;;;;5091261;28;20469;-66
2022/04/09 09:36:50;;;;;;;1999.90;999.90;;;8.90;99.90;;;;;;5091078;28;20437;-65
2022/04/09 09:39:19;;;;;;;1999.90;999.90;;;9.20;99.90;;;;;;5077076;28;20926;-64
2022/04/09 09:41:50;;;;;;;1999.90;999.90;;;9.30;99.90;;;;;;5072577;28;20524;-63
2022/04/09 09:44:18;;;;;;;1999.90;999.90;;;9.40;99.90;;;;;;5084329;28;20484;-66
2022/04/09 09:46:47;;;;;;;1999.90;999.90;;;9.30;99.90;;;;;;5071993;28;20954;-64
2022/04/09 09:49:14;;;;;;;1999.90;999.90;;;9.30;99.90;;;;;;5052426;28;20485;-64
2022/04/09 09:51:42;;;;;;;1999.90;999.90;;;9.50;99.90;;;;;;5051917;28;21000;-65
2022/04/09 09:54:10;;;;;;;1999.90;999.90;;;9.40;99.90;;;;;;5076087;28;20559;-62
2022/04/09 09:56:41;;;;;;;1999.90;999.90;;;9.30;99.90;;;;;;5055277;28;20450;-64
2022/04/09 09:59:09;;;;;;;1999.90;999.90;;;9.20;99.90;;;;;;5077778;28;20457;-66
2022/04/09 10:01:38;;;;;;;1999.90;999.90;;;9.30;99.50;;;;;;5071471;28;20445;-65
2022/04/09 10:04:06;;;;;;;1999.90;999.90;;;9.60;99.70;;;;;;5070910;28;20465;-65
2022/04/09 10:06:34;;;;;;;1999.90;999.90;;;10.00;98.40;;;;;;5071205;28;20518;-65
2022/04/09 10:09:01;;;;;;;1999.90;999.90;;;9.80;98.30;;;;;;5070226;28;21065;-65
2022/04/09 10:11:29;;;;;;;1999.90;999.90;;;9.80;99.70;;;;;;5071427;28;20442;-65
2022/04/09 10:13:58;;;;;;;1999.90;999.90;;;9.50;99.90;;;;;;5070019;28;20556;-65
2022/04/09 10:16:27;;;;;;;1999.90;999.90;;;9.30;99.90;;;;;;5072554;28;20449;-62
2022/04/09 10:18:59;;;;;;;1999.90;999.90;;;8.90;99.90;;;;;;5075137;28;20456;-65
2022/04/09 10:21:27;;;;;;;1999.90;999.90;;;8.50;99.90;;;;;;5075405;28;20445;-65
2022/04/09 10:23:55;;;;;;;1999.90;999.90;;;8.80;99.90;;;;;;5074301;28;20476;-66
2022/04/09 10:26:23;;;;;;;1999.90;999.90;;;8.90;99.90;;;;;;5074782;28;20492;-67
2022/04/09 10:28:51;;;;;;;1999.90;999.90;;;9.30;99.90;;;;;;5076134;28;20445;-65
2022/04/09 10:31:36;;;;;;;1999.90;999.90;;;9.70;99.90;;;;;;5075237;28;20532;-65
2022/04/09 10:34:05;;;;;;;1999.90;999.90;;;9.80;99.90;;;;;;5075661;28;20591;-65
2022/04/09 10:36:59;;;;;;;1999.90;999.90;;;10.10;99.90;;;;;;5087591;28;20449;-66
2022/04/09 10:39:29;;;;;;;1999.90;999.90;;;10.10;99.90;;;;;;5076245;28;20520;-65
2022/04/09 10:41:56;;;;;;;1999.90;999.90;;;10.20;99.90;;;;;;5075510;28;20449;-65
2022/04/09 10:44:52;;;;;;;1999.90;999.90;;;10.10;99.90;;;;;;5075398;28;20473;-65
2022/04/09 10:47:20;;;;;;;1999.90;999.90;;;10.00;99.90;;;;;;5055337;28;20950;-65
2022/04/09 10:50:12;;;;;;;1999.90;999.90;;;9.10;99.90;;;;;;5055284;28;20454;-65
2022/04/09 10:52:39;;;;;;;1999.90;999.90;;;8.20;99.90;;;;;;5059160;28;20961;-64
2022/04/09 10:55:22;;;;;;;1999.90;999.90;;;8.10;99.90;;;;;;5073866;28;20465;-66
2022/04/09 10:57:52;;;;;;;1999.90;999.90;;;8.30;99.90;;;;;;5071681;28;20980;-66
2022/04/09 11:00:30;;;;;;;1999.90;999.90;;;8.60;99.90;;;;;;5073548;28;20945;-66
2022/04/09 11:03:15;;;;;;;1999.90;999.90;;;8.60;99.90;;;;;;5074121;28;20453;-65
2022/04/09 11:05:43;;;;;;;1999.90;999.90;;;8.80;99.90;;;;;;5074589;28;20476;-65
2022/04/09 11:08:14;;;;;;;1999.90;999.90;;;9.20;99.90;;;;;;5074755;28;20464;-66
2022/04/09 11:10:41;;;;;;;1999.90;999.90;;;9.20;99.90;;;;;;5077900;28;20499;-66
2022/04/09 11:13:10;;;;;;;1999.90;999.90;;;9.30;99.90;;;;;;5066828;28;20449;-64
2022/04/09 11:15:39;;;;;;;1999.90;999.90;;;9.60;99.90;;;;;;5091719;28;20512;-66
2022/04/09 11:18:08;;;;;;;1999.90;999.90;;;9.90;99.90;;;;;;5093255;28;20970;-67
2022/04/09 11:20:36;;;;;;;1999.90;999.90;;;10.00;99.90;;;;;;5075350;28;20465;-66
2022/04/09 11:23:12;;;;;;;1999.90;999.90;;;10.30;99.90;;;;;;5065915;28;20524;-65
2022/04/09 11:25:41;;;;;;;1999.90;999.90;;;10.60;99.90;;;;;;5079944;28;20500;-67
2022/04/09 11:28:13;;;;;;;1999.90;999.90;;;10.50;99.90;;;;;;5074059;28;20472;-66
2022/04/09 11:30:39;;;;;;;1999.90;999.90;;;10.80;99.90;;;;;;5072906;28;21001;-66
2022/04/09 11:33:15;;;;;;;1999.90;999.90;;;11.10;99.90;;;;;;5073055;28;20441;-65
2022/04/09 11:35:42;;;;;;;1999.90;999.90;;;10.70;99.90;;;;;;5075080;28;20457;-66
2022/04/09 11:38:11;;;;;;;1999.90;999.90;;;10.40;99.90;;;;;;5074494;28;20453;-65
2022/04/09 11:40:42;;;;;;;1999.90;999.90;;;9.70;99.90;;;;;;5073840;28;20457;-65
2022/04/09 11:43:09;;;;;;;1999.90;999.90;;;7.90;99.90;;;;;;5072003;28;21235;-64
2022/04/09 11:45:36;;;;;;;1999.90;999.90;;;6.60;99.90;;;;;;5074111;28;20485;-67
2022/04/09 11:48:03;;;;;;;1999.90;999.90;;;5.90;99.90;;;;;;5064377;28;20457;-67
2022/04/09 11:50:33;;;;;;;1999.90;999.90;;;5.60;99.90;;;;;;5073863;28;20548;-67
2022/04/09 11:53:10;;;;;;;1999.90;999.90;;;5.60;99.90;;;;;;5072513;28;20503;-67
2022/04/09 11:55:37;;;;;;;1999.90;999.90;;;5.50;99.90;;;;;;5054620;28;20442;-67
2022/04/09 11:58:04;;;;;;;1999.90;999.90;;;5.30;99.90;;;;;;5073966;28;20449;-66
2022/04/09 12:00:30;;;;;;;1999.90;999.90;;;5.10;99.90;;;;;;5073592;28;20503;-67
2022/04/09 12:03:02;;;;;;;1999.90;999.90;;;5.20;99.90;;;;;;5073441;28;20832;-67
2022/04/09 12:05:37;;;;;;;1999.90;999.90;;;5.00;99.90;;;;;;5073759;28;20509;-67
2022/04/09 12:08:07;;;;;;;1999.90;999.90;;;5.40;99.90;;;;;;5073511;28;20514;-67
2022/04/09 12:10:34;;;;;;;1999.90;999.90;;;5.90;99.90;;;;;;5073970;28;20522;-66
2022/04/09 12:13:02;;;;;;;1999.90;999.90;;;6.40;99.90;;;;;;5073139;28;20453;-66